Time;durP1;ratioP1;P1;durP2;ratioP2;P2;SDS_P1;SDS_P2;PMS_P1;PMS_P2;Temp;Humidity;BMP_temperature;BMP_pressure;BME280_temperature;BME280_humidity;BME280_pressure;Samples;Min_cycle;Max_cycle;Signal;HPM_P1;HPM_P2
2023/05/13 00:01:37;;;;;;;14.20;11.60;;;14.70;97.20;;;;;;4976714;28;20446;-70
2023/05/13 00:04:06;;;;;;;13.13;11.80;;;14.70;97.30;;;;;;4976700;28;20426;-70
2023/05/13 00:06:34;;;;;;;13.93;12.50;;;14.70;97.40;;;;;;4977858;28;20512;-70
2023/05/13 00:09:04;;;;;;;14.23;12.93;;;14.60;97.40;;;;;;4981227;28;20453;-71
2023/05/13 00:11:32;;;;;;;12.43;11.33;;;14.60;97.50;;;;;;4979174;28;20445;-70
2023/05/13 00:14:00;;;;;;;12.20;11.07;;;14.50;97.80;;;;;;4978296;28;20477;-70
2023/05/13 00:16:28;;;;;;;11.97;10.97;;;14.50;97.60;;;;;;4978143;28;20442;-71
2023/05/13 00:18:56;;;;;;;12.00;10.90;;;14.40;97.60;;;;;;4977342;28;20508;-71
2023/05/13 00:21:24;;;;;;;12.10;11.00;;;14.40;97.70;;;;;;4976755;28;20799;-71
2023/05/13 00:23:52;;;;;;;11.13;10.03;;;14.40;97.80;;;;;;4975704;28;20457;-70
2023/05/13 00:26:22;;;;;;;11.90;10.77;;;14.40;97.90;;;;;;4976374;28;20463;-70
2023/05/13 00:28:50;;;;;;;12.17;10.70;;;14.30;97.90;;;;;;4976268;28;20469;-71
2023/05/13 00:31:19;;;;;;;12.60;11.40;;;14.30;98.00;;;;;;4974614;28;20442;-71
2023/05/13 00:33:47;;;;;;;12.13;10.93;;;14.30;98.10;;;;;;4975781;28;20476;-70
2023/05/13 00:36:15;;;;;;;11.67;10.67;;;14.20;98.10;;;;;;4974499;28;20872;-70
2023/05/13 00:38:44;;;;;;;13.30;12.00;;;14.10;98.10;;;;;;4975834;28;20931;-70
2023/05/13 00:41:12;;;;;;;12.40;11.30;;;14.10;98.20;;;;;;4975991;28;20444;-70
2023/05/13 00:43:42;;;;;;;12.53;11.47;;;14.10;98.30;;;;;;4975879;28;20453;-70
2023/05/13 00:46:10;;;;;;;12.37;11.37;;;14.00;98.30;;;;;;4975568;28;20457;-70
2023/05/13 00:48:38;;;;;;;12.87;11.73;;;14.00;98.40;;;;;;4975486;28;20490;-70
2023/05/13 00:51:07;;;;;;;12.83;11.60;;;14.00;98.40;;;;;;4974692;28;20877;-70
2023/05/13 00:53:35;;;;;;;11.83;10.80;;;14.00;98.50;;;;;;4975440;28;20476;-70
2023/05/13 00:56:04;;;;;;;12.60;11.50;;;13.90;98.60;;;;;;4975307;28;20457;-70
2023/05/13 00:58:32;;;;;;;14.43;13.07;;;13.90;98.70;;;;;;4973009;28;20974;-70
2023/05/13 01:01:13;;;;;;;13.13;12.03;;;13.80;98.70;;;;;;4975528;28;20524;-70
2023/05/13 01:03:50;;;;;;;13.23;12.20;;;13.80;98.80;;;;;;4973948;28;20480;-70
2023/05/13 01:06:25;;;;;;;13.70;12.70;;;13.70;98.80;;;;;;4974339;28;20997;-70
2023/05/13 01:08:58;;;;;;;14.47;13.20;;;13.70;98.90;;;;;;4975384;28;20432;-70
2023/05/13 01:11:29;;;;;;;13.57;12.47;;;13.60;98.90;;;;;;4973862;28;20445;-70
2023/05/13 01:14:02;;;;;;;13.53;12.33;;;13.60;99.00;;;;;;4975913;28;20541;-70
2023/05/13 01:16:38;;;;;;;13.97;12.67;;;13.60;99.10;;;;;;4974207;28;20850;-71
2023/05/13 01:19:17;;;;;;;12.17;11.17;;;13.50;99.10;;;;;;4975036;28;20433;-70
2023/05/13 01:21:53;;;;;;;12.50;11.40;;;13.50;99.20;;;;;;4973743;28;20437;-70
2023/05/13 01:24:22;;;;;;;12.10;11.00;;;13.50;99.30;;;;;;4973662;28;20528;-70
2023/05/13 01:26:51;;;;;;;13.30;12.20;;;13.50;99.30;;;;;;4973580;28;20497;-70
2023/05/13 01:29:19;;;;;;;12.80;11.80;;;13.40;99.30;;;;;;4973811;28;20505;-70
2023/05/13 01:31:49;;;;;;;13.50;12.20;;;13.40;99.40;;;;;;4973579;28;20442;-71
2023/05/13 01:34:20;;;;;;;14.20;13.00;;;13.30;99.40;;;;;;4974013;28;20470;-70
2023/05/13 01:36:49;;;;;;;12.50;11.50;;;13.30;99.50;;;;;;4973602;28;20528;-71
2023/05/13 01:39:21;;;;;;;13.70;12.60;;;13.30;99.60;;;;;;4973468;28;20453;-70
2023/05/13 01:41:52;;;;;;;12.53;11.43;;;13.30;99.70;;;;;;4973420;28;20974;-70
2023/05/13 01:44:20;;;;;;;11.73;10.73;;;13.20;99.70;;;;;;4973779;28;20466;-70
2023/05/13 01:46:49;;;;;;;13.97;12.87;;;13.20;99.70;;;;;;4973448;28;20549;-70
2023/05/13 01:49:18;;;;;;;14.00;12.80;;;13.10;99.80;;;;;;4973349;28;20480;-70
2023/05/13 01:51:46;;;;;;;14.80;13.50;;;13.10;99.80;;;;;;4973288;28;20442;-70
2023/05/13 01:54:14;;;;;;;15.70;14.40;;;13.10;99.90;;;;;;4973330;28;20506;-70
2023/05/13 01:56:49;;;;;;;14.60;13.40;;;13.00;99.90;;;;;;4974118;28;20467;-70
2023/05/13 01:59:18;;;;;;;14.57;13.30;;;13.00;99.90;;;;;;4973589;28;20464;-70
2023/05/13 02:01:48;;;;;;;15.43;14.20;;;13.00;99.90;;;;;;4973189;28;20994;-70
2023/05/13 02:04:16;;;;;;;14.27;13.07;;;13.00;99.90;;;;;;4974661;28;20474;-70
2023/05/13 02:06:44;;;;;;;15.63;14.30;;;12.90;99.90;;;;;;4973132;28;20445;-70
2023/05/13 02:09:13;;;;;;;14.17;13.00;;;12.90;99.90;;;;;;4973176;28;20457;-70
2023/05/13 02:11:41;;;;;;;12.13;11.13;;;12.80;99.90;;;;;;4972888;28;20446;-70
2023/05/13 02:14:10;;;;;;;15.73;14.50;;;12.80;99.90;;;;;;4973687;28;20979;-70
2023/05/13 02:16:39;;;;;;;15.77;14.50;;;12.80;99.90;;;;;;4973157;28;20457;-70
2023/05/13 02:19:07;;;;;;;15.40;14.10;;;12.70;99.90;;;;;;4972970;28;20450;-70
2023/05/13 02:21:35;;;;;;;14.93;13.70;;;12.70;99.90;;;;;;4973010;28;20504;-70
2023/05/13 02:24:04;;;;;;;16.83;15.33;;;12.70;99.90;;;;;;4972974;28;20453;-70
2023/05/13 02:26:32;;;;;;;15.57;14.20;;;12.70;99.90;;;;;;4972896;28;20456;-70
2023/05/13 02:29:00;;;;;;;14.30;13.20;;;12.60;99.90;;;;;;4974127;28;20549;-70
2023/05/13 02:31:31;;;;;;;16.13;14.67;;;12.60;99.90;;;;;;4973088;28;20508;-70
2023/05/13 02:33:59;;;;;;;16.23;14.73;;;12.60;99.90;;;;;;4972914;28;20453;-70
2023/05/13 02:36:27;;;;;;;16.13;14.93;;;12.60;99.90;;;;;;4974436;28;20433;-70
2023/05/13 02:38:56;;;;;;;16.47;15.17;;;12.50;99.90;;;;;;4972897;28;20540;-70
2023/05/13 02:41:24;;;;;;;16.27;14.97;;;12.50;99.90;;;;;;4972867;28;20529;-70
2023/05/13 02:43:52;;;;;;;16.17;14.70;;;12.50;99.90;;;;;;4972845;28;20449;-70
2023/05/13 02:46:21;;;;;;;15.50;14.30;;;12.40;99.90;;;;;;4972897;28;20943;-70
2023/05/13 02:48:50;;;;;;;15.20;14.00;;;12.40;99.90;;;;;;4972934;28;20213;-70
2023/05/13 02:51:18;;;;;;;16.90;15.40;;;12.40;99.90;;;;;;4972798;28;20457;-70
2023/05/13 02:53:47;;;;;;;16.40;14.97;;;12.40;99.90;;;;;;4973167;28;20445;-70
2023/05/13 02:56:15;;;;;;;16.87;15.47;;;12.40;99.90;;;;;;4972922;28;20477;-70
2023/05/13 02:58:44;;;;;;;16.60;15.40;;;12.40;99.90;;;;;;4972868;28;20454;-70
2023/05/13 03:01:12;;;;;;;14.80;13.60;;;12.30;99.90;;;;;;4973389;28;20449;-70
2023/05/13 03:03:40;;;;;;;17.07;15.23;;;12.30;99.90;;;;;;4972706;28;20477;-70
2023/05/13 03:06:10;;;;;;;15.87;14.63;;;12.20;99.90;;;;;;4972624;28;20473;-70
2023/05/13 03:08:38;;;;;;;15.50;14.20;;;12.20;99.90;;;;;;4973908;28;20481;-70
2023/05/13 03:11:06;;;;;;;15.83;14.60;;;12.20;99.90;;;;;;4972584;28;20449;-70
2023/05/13 03:13:34;;;;;;;16.53;15.23;;;12.20;99.90;;;;;;4972684;28;20461;-70
2023/05/13 03:16:02;;;;;;;15.60;14.30;;;12.20;99.90;;;;;;4974234;28;20481;-71
2023/05/13 03:18:31;;;;;;;16.47;15.10;;;12.10;99.90;;;;;;4976376;28;20457;-70
2023/05/13 03:21:00;;;;;;;16.87;15.43;;;12.10;99.90;;;;;;4974528;28;20450;-70
2023/05/13 03:23:31;;;;;;;16.80;15.40;;;12.10;99.90;;;;;;4976126;28;20465;-70
2023/05/13 03:26:00;;;;;;;18.10;16.43;;;12.00;99.90;;;;;;4976873;28;20550;-70
2023/05/13 03:28:31;;;;;;;12.70;11.60;;;12.00;99.90;;;;;;4976345;28;20449;-70
2023/05/13 03:31:00;;;;;;;16.93;15.50;;;12.00;99.90;;;;;;4977077;28;20512;-70
2023/05/13 03:33:30;;;;;;;17.73;16.13;;;12.00;99.90;;;;;;4976735;28;20465;-70
2023/05/13 03:35:58;;;;;;;16.33;14.93;;;12.00;99.90;;;;;;4975731;28;20532;-70
2023/05/13 03:38:32;;;;;;;16.57;15.27;;;11.90;99.90;;;;;;4976482;28;20787;-70
2023/05/13 03:41:00;;;;;;;15.43;14.10;;;11.90;99.90;;;;;;4977610;28;20516;-70
2023/05/13 03:43:29;;;;;;;15.47;14.00;;;11.90;99.90;;;;;;4975578;28;20939;-70
2023/05/13 03:46:02;;;;;;;17.00;15.20;;;11.90;99.90;;;;;;4975517;28;21045;-70
2023/05/13 03:48:30;;;;;;;16.40;14.90;;;11.90;99.90;;;;;;4976017;28;20445;-70
2023/05/13 03:51:01;;;;;;;17.27;15.87;;;11.90;99.90;;;;;;4975881;28;20438;-70
2023/05/13 03:53:31;;;;;;;16.90;15.60;;;11.80;99.90;;;;;;4975920;28;20533;-70
2023/05/13 03:55:59;;;;;;;15.47;14.27;;;11.80;99.90;;;;;;4975226;28;20481;-70
2023/05/13 03:58:28;;;;;;;15.67;14.47;;;11.80;99.90;;;;;;4975226;28;20512;-70
2023/05/13 04:00:58;;;;;;;16.73;15.43;;;11.80;99.90;;;;;;4975175;28;20454;-70
2023/05/13 04:03:26;;;;;;;16.53;15.13;;;11.80;99.90;;;;;;4975625;28;20458;-70
2023/05/13 04:05:55;;;;;;;17.87;16.17;;;11.70;99.90;;;;;;4976714;28;20465;-70
2023/05/13 04:08:23;;;;;;;17.77;16.40;;;11.70;99.90;;;;;;4977025;28;20461;-70
2023/05/13 04:10:53;;;;;;;16.23;14.87;;;11.70;99.90;;;;;;4975060;28;20464;-70
2023/05/13 04:13:21;;;;;;;15.50;14.37;;;11.70;99.90;;;;;;4976408;28;20440;-70
2023/05/13 04:15:49;;;;;;;15.83;14.60;;;11.70;99.90;;;;;;4976413;28;20501;-70
2023/05/13 04:18:17;;;;;;;16.23;14.93;;;11.70;99.90;;;;;;4976378;28;20449;-70
2023/05/13 04:20:45;;;;;;;18.23;16.63;;;11.70;99.90;;;;;;4975084;28;20449;-70
2023/05/13 04:23:13;;;;;;;17.03;15.33;;;11.70;99.90;;;;;;4975111;28;20540;-70
2023/05/13 04:25:42;;;;;;;16.87;15.47;;;11.70;99.90;;;;;;4974835;28;20469;-70
2023/05/13 04:28:12;;;;;;;16.23;14.83;;;11.70;99.90;;;;;;4974931;28;20480;-70
2023/05/13 04:30:43;;;;;;;17.60;16.10;;;11.70;99.90;;;;;;4975492;28;20441;-70
2023/05/13 04:33:12;;;;;;;17.23;15.77;;;11.70;99.90;;;;;;4974920;28;20449;-70
2023/05/13 04:35:43;;;;;;;17.20;15.80;;;11.70;99.90;;;;;;4975075;28;20481;-70
2023/05/13 04:38:12;;;;;;;18.43;16.93;;;11.70;99.90;;;;;;4974957;28;20442;-70
2023/05/13 04:40:40;;;;;;;17.57;16.23;;;11.70;99.90;;;;;;4974874;28;20453;-70
2023/05/13 04:43:12;;;;;;;17.53;16.10;;;11.70;99.90;;;;;;4974568;28;20438;-70
2023/05/13 04:45:48;;;;;;;18.43;16.87;;;11.70;99.90;;;;;;4974666;28;20477;-70
2023/05/13 04:48:16;;;;;;;17.10;15.63;;;11.70;99.90;;;;;;4974611;28;20532;-70
2023/05/13 04:50:48;;;;;;;17.43;15.97;;;11.70;99.90;;;;;;4974710;28;20449;-70
2023/05/13 04:53:17;;;;;;;17.00;15.50;;;11.80;99.90;;;;;;4974540;28;20970;-69
2023/05/13 04:55:47;;;;;;;16.57;14.90;;;11.80;99.90;;;;;;4974765;28;20572;-70
2023/05/13 04:58:16;;;;;;;16.50;15.07;;;11.80;99.90;;;;;;4974319;28;20963;-70
2023/05/13 05:00:45;;;;;;;16.70;15.30;;;11.80;99.90;;;;;;4975519;28;20939;-69
2023/05/13 05:03:13;;;;;;;16.37;14.93;;;11.80;99.90;;;;;;4975567;28;20532;-70
2023/05/13 05:05:42;;;;;;;16.70;15.40;;;11.80;99.90;;;;;;4974230;28;20465;-70
2023/05/13 05:08:12;;;;;;;16.40;15.00;;;11.90;99.90;;;;;;4974206;28;21023;-70
2023/05/13 05:10:40;;;;;;;17.20;15.50;;;11.90;99.90;;;;;;4974481;28;20449;-70
2023/05/13 05:13:10;;;;;;;16.63;15.00;;;11.90;99.90;;;;;;4974278;28;20973;-70
2023/05/13 05:15:40;;;;;;;16.47;15.17;;;11.90;99.90;;;;;;4974007;28;20485;-70
2023/05/13 05:18:09;;;;;;;15.90;14.70;;;11.90;99.90;;;;;;4973974;28;20818;-70
2023/05/13 05:20:39;;;;;;;16.37;14.97;;;12.00;99.90;;;;;;4974076;28;20450;-70
2023/05/13 05:23:13;;;;;;;16.83;15.10;;;11.90;99.90;;;;;;4974179;28;20531;-70
2023/05/13 05:25:42;;;;;;;17.03;14.80;;;12.00;99.90;;;;;;4973750;28;20505;-69
2023/05/13 05:28:10;;;;;;;15.50;14.20;;;12.00;99.90;;;;;;4975455;28;20434;-70
2023/05/13 05:30:43;;;;;;;16.77;15.27;;;12.10;99.90;;;;;;4974119;28;20457;-70
2023/05/13 05:33:19;;;;;;;16.03;14.67;;;12.10;99.90;;;;;;4974053;28;20460;-70
2023/05/13 05:35:48;;;;;;;15.60;14.20;;;12.10;99.90;;;;;;4973620;28;20501;-69
2023/05/13 05:38:19;;;;;;;16.23;14.93;;;12.10;99.90;;;;;;4974175;28;20525;-70
2023/05/13 05:40:47;;;;;;;18.17;16.57;;;12.20;99.90;;;;;;4973701;28;20446;-69
2023/05/13 05:43:16;;;;;;;18.07;16.37;;;12.30;99.90;;;;;;4973756;28;20525;-70
2023/05/13 05:45:46;;;;;;;16.80;15.23;;;12.40;99.90;;;;;;4972927;28;20481;-70
2023/05/13 05:48:17;;;;;;;16.53;15.10;;;12.50;99.90;;;;;;4974519;28;20480;-70
2023/05/13 05:50:45;;;;;;;15.90;14.50;;;12.70;99.90;;;;;;4973510;28;20990;-70
2023/05/13 05:53:18;;;;;;;15.77;14.47;;;12.90;99.90;;;;;;4973912;28;20438;-70
2023/05/13 05:55:46;;;;;;;14.80;13.40;;;13.10;99.90;;;;;;4973398;28;20557;-70
2023/05/13 05:58:16;;;;;;;15.27;13.77;;;13.40;99.90;;;;;;4973819;28;20824;-70
2023/05/13 06:00:47;;;;;;;16.23;14.83;;;13.60;99.90;;;;;;4973543;28;20829;-70
2023/05/13 06:03:15;;;;;;;15.97;14.47;;;13.90;99.90;;;;;;4973845;28;20823;-70
2023/05/13 06:05:44;;;;;;;15.60;14.20;;;14.20;99.90;;;;;;4974754;28;20458;-70
2023/05/13 06:08:12;;;;;;;15.13;13.70;;;14.40;99.90;;;;;;4973954;28;20453;-70
2023/05/13 06:10:41;;;;;;;14.03;12.60;;;14.60;99.90;;;;;;4973515;28;20947;-70
2023/05/13 06:13:09;;;;;;;14.20;13.03;;;14.80;99.90;;;;;;4973718;28;20485;-70
2023/05/13 06:15:38;;;;;;;14.07;12.80;;;15.10;99.90;;;;;;4973590;28;20477;-71
2023/05/13 06:18:08;;;;;;;13.93;12.57;;;15.30;99.90;;;;;;4973727;28;20485;-70
2023/05/13 06:20:36;;;;;;;12.97;11.80;;;15.40;99.90;;;;;;4974786;28;20441;-70
2023/05/13 06:23:04;;;;;;;12.30;11.20;;;15.60;99.90;;;;;;4975357;28;20469;-71
2023/05/13 06:25:33;;;;;;;12.70;11.70;;;15.90;99.90;;;;;;4973973;28;20538;-70
2023/05/13 06:28:01;;;;;;;14.17;12.80;;;16.10;99.90;;;;;;4976173;28;20437;-69
2023/05/13 06:30:30;;;;;;;13.77;12.57;;;16.30;99.90;;;;;;4975363;28;20412;-70
2023/05/13 06:32:58;;;;;;;12.37;11.27;;;16.40;99.90;;;;;;4974494;28;20844;-70
2023/05/13 06:35:32;;;;;;;14.37;11.53;;;16.60;99.90;;;;;;4974265;28;20467;-70
2023/05/13 06:38:03;;;;;;;13.90;11.50;;;16.80;99.90;;;;;;4974973;28;20903;-70
2023/05/13 06:40:32;;;;;;;12.07;10.90;;;17.00;99.90;;;;;;4974550;28;20463;-70
2023/05/13 06:43:00;;;;;;;12.27;10.90;;;17.30;99.90;;;;;;4973961;28;20918;-70
2023/05/13 06:45:30;;;;;;;11.90;10.90;;;17.50;99.90;;;;;;4974068;28;20999;-70
2023/05/13 06:47:59;;;;;;;13.30;10.80;;;17.60;99.90;;;;;;4975027;28;20434;-71
2023/05/13 06:50:27;;;;;;;11.40;10.30;;;17.80;99.90;;;;;;4979401;28;20456;-70
2023/05/13 06:52:57;;;;;;;11.07;10.07;;;18.00;99.90;;;;;;4975565;28;20523;-71
2023/05/13 06:55:26;;;;;;;11.17;10.10;;;18.20;99.90;;;;;;4974793;28;20496;-70
2023/05/13 06:57:54;;;;;;;11.30;10.10;;;18.40;99.90;;;;;;4978987;28;20477;-71
2023/05/13 07:00:23;;;;;;;11.97;10.80;;;18.50;99.90;;;;;;4978961;28;20434;-71
2023/05/13 07:02:51;;;;;;;12.23;11.03;;;18.70;99.90;;;;;;4979896;28;20480;-71
2023/05/13 07:05:19;;;;;;;11.73;10.67;;;18.80;99.90;;;;;;4977977;28;20813;-70
2023/05/13 07:07:52;;;;;;;11.70;10.70;;;18.90;99.90;;;;;;4979618;28;20434;-71
2023/05/13 07:10:21;;;;;;;11.47;10.47;;;19.00;99.90;;;;;;4978627;28;20446;-72
2023/05/13 07:12:50;;;;;;;11.40;10.27;;;19.10;99.90;;;;;;4981184;28;21034;-71
2023/05/13 07:15:18;;;;;;;11.70;10.50;;;19.20;99.90;;;;;;4981547;28;20462;-74
2023/05/13 07:17:47;;;;;;;10.77;9.47;;;19.30;99.90;;;;;;4981403;28;20517;-72
2023/05/13 07:20:18;;;;;;;10.90;9.77;;;19.30;99.90;;;;;;4980738;28;20408;-72
2023/05/13 07:22:46;;;;;;;10.63;9.70;;;19.30;99.90;;;;;;4982096;28;20426;-73
2023/05/13 07:25:14;;;;;;;11.03;9.93;;;19.40;99.90;;;;;;4980742;28;20461;-73
2023/05/13 07:27:44;;;;;;;10.87;9.83;;;19.50;99.90;;;;;;4979361;28;20457;-73
2023/05/13 07:30:13;;;;;;;10.87;9.43;;;19.70;99.90;;;;;;4979526;28;20437;-72
2023/05/13 07:32:41;;;;;;;11.10;9.60;;;19.80;99.90;;;;;;4977945;28;20507;-72
2023/05/13 07:35:10;;;;;;;11.87;10.67;;;19.90;99.90;;;;;;4978773;28;20457;-72
2023/05/13 07:37:38;;;;;;;11.90;9.57;;;20.00;99.90;;;;;;4980102;28;20476;-72
2023/05/13 07:40:07;;;;;;;12.03;8.83;;;20.10;99.90;;;;;;4980895;28;20946;-72
2023/05/13 07:42:37;;;;;;;11.00;9.90;;;20.20;99.90;;;;;;4979613;28;20437;-73
2023/05/13 07:45:08;;;;;;;10.93;9.93;;;20.20;99.90;;;;;;4979127;28;20524;-73
2023/05/13 07:47:36;;;;;;;11.47;10.30;;;20.30;99.90;;;;;;4977872;28;20549;-72
2023/05/13 07:50:05;;;;;;;12.63;10.57;;;20.30;99.90;;;;;;4978358;28;20433;-73
2023/05/13 07:52:33;;;;;;;11.70;10.53;;;20.40;99.90;;;;;;4979467;28;20452;-72
2023/05/13 07:55:01;;;;;;;12.23;11.03;;;20.40;99.90;;;;;;4977495;28;20470;-72
2023/05/13 07:57:30;;;;;;;11.43;10.23;;;20.40;99.90;;;;;;4979152;28;20474;-72
2023/05/13 07:59:58;;;;;;;14.70;10.63;;;20.50;99.90;;;;;;4979668;28;20438;-71
2023/05/13 08:02:33;;;;;;;13.97;10.70;;;20.50;99.90;;;;;;4979288;28;20448;-72
2023/05/13 08:05:01;;;;;;;11.93;10.10;;;20.60;99.90;;;;;;4979399;28;20469;-71
2023/05/13 08:07:30;;;;;;;10.03;9.03;;;20.60;99.90;;;;;;4978974;28;20441;-72
2023/05/13 08:09:58;;;;;;;11.63;9.73;;;20.60;99.90;;;;;;4979349;28;20441;-71
2023/05/13 08:12:26;;;;;;;9.70;8.73;;;20.70;99.90;;;;;;4979248;28;20453;-71
2023/05/13 08:14:54;;;;;;;10.10;8.37;;;20.70;99.90;;;;;;4978773;28;20461;-71
2023/05/13 08:17:22;;;;;;;9.73;8.70;;;20.80;99.90;;;;;;4978545;28;20482;-72
2023/05/13 08:19:52;;;;;;;10.20;8.60;;;20.90;99.70;;;;;;4978294;28;20481;-72
2023/05/13 08:22:20;;;;;;;10.80;9.27;;;21.00;99.60;;;;;;4979444;28;20516;-72
2023/05/13 08:24:48;;;;;;;12.70;10.30;;;21.00;99.50;;;;;;4977250;28;20508;-72
2023/05/13 08:27:16;;;;;;;11.47;8.43;;;21.10;99.40;;;;;;4979082;28;20457;-71
2023/05/13 08:29:44;;;;;;;10.40;8.10;;;21.10;99.20;;;;;;4981448;28;20457;-71
2023/05/13 08:32:12;;;;;;;12.33;8.40;;;21.10;99.20;;;;;;4984304;28;20481;-70
2023/05/13 08:34:40;;;;;;;11.03;8.00;;;21.20;99.10;;;;;;4982487;28;20461;-71
2023/05/13 08:37:10;;;;;;;8.43;7.63;;;21.20;98.90;;;;;;4979483;28;20932;-71
2023/05/13 08:39:38;;;;;;;8.93;7.40;;;21.20;98.70;;;;;;4979244;28;20441;-71
2023/05/13 08:42:10;;;;;;;8.70;7.90;;;21.30;98.70;;;;;;4978433;28;20958;-71
2023/05/13 08:44:40;;;;;;;8.73;7.87;;;21.30;98.80;;;;;;4975976;28;20564;-71
2023/05/13 08:47:17;;;;;;;9.90;8.90;;;21.40;98.80;;;;;;4977856;28;20512;-71
2023/05/13 08:49:46;;;;;;;9.97;9.00;;;21.40;98.70;;;;;;4977238;28;20921;-71
2023/05/13 08:52:16;;;;;;;10.53;8.80;;;21.40;98.80;;;;;;4976238;28;20434;-71
2023/05/13 08:54:45;;;;;;;9.40;8.50;;;21.50;98.90;;;;;;4976436;28;20540;-73
2023/05/13 08:57:13;;;;;;;8.63;7.83;;;21.60;99.00;;;;;;4976210;28;20460;-72
2023/05/13 08:59:41;;;;;;;8.87;7.77;;;21.60;98.80;;;;;;4976348;28;20484;-73
2023/05/13 09:02:10;;;;;;;11.10;8.50;;;21.70;98.80;;;;;;4975034;28;20513;-73
2023/05/13 09:04:41;;;;;;;8.57;7.77;;;21.70;98.60;;;;;;4977207;28;20461;-72
2023/05/13 09:07:10;;;;;;;11.60;8.73;;;21.80;98.70;;;;;;4977492;28;20417;-72
2023/05/13 09:09:40;;;;;;;10.37;8.47;;;21.80;98.70;;;;;;4978067;28;20863;-79
2023/05/13 09:12:08;;;;;;;8.30;7.50;;;21.80;98.70;;;;;;4984614;28;20454;-80
2023/05/13 09:14:37;;;;;;;10.30;8.40;;;21.90;98.80;;;;;;4979110;28;20473;-74
2023/05/13 09:17:06;;;;;;;8.87;7.97;;;21.90;98.70;;;;;;4983907;28;20461;-76
2023/05/13 09:19:35;;;;;;;10.17;8.17;;;22.00;98.60;;;;;;4981244;28;20479;-78
2023/05/13 09:22:04;;;;;;;8.93;7.70;;;22.00;98.50;;;;;;4981015;28;20509;-78
2023/05/13 09:24:32;;;;;;;10.03;7.30;;;22.10;98.50;;;;;;4984242;28;20469;-74
2023/05/13 09:27:01;;;;;;;10.60;8.17;;;22.10;98.50;;;;;;4981427;28;20481;-75
2023/05/13 09:29:30;;;;;;;10.90;7.77;;;22.10;98.50;;;;;;4983890;28;20465;-78
2023/05/13 09:32:01;;;;;;;9.13;7.30;;;22.10;98.60;;;;;;4981078;28;20465;-74
2023/05/13 09:34:32;;;;;;;8.50;7.50;;;22.20;98.30;;;;;;4979763;28;20474;-74
2023/05/13 09:37:01;;;;;;;14.63;8.37;;;22.20;98.00;;;;;;4983604;28;20433;-75
2023/05/13 09:39:32;;;;;;;10.37;8.10;;;22.30;98.00;;;;;;4983993;28;20571;-75
2023/05/13 09:42:02;;;;;;;8.30;7.20;;;22.30;98.00;;;;;;4985814;28;20446;-75
2023/05/13 09:44:33;;;;;;;9.20;7.60;;;22.30;98.00;;;;;;4980578;28;20461;-74
2023/05/13 09:47:02;;;;;;;8.27;7.47;;;22.40;97.80;;;;;;4976085;28;20438;-76
2023/05/13 09:49:31;;;;;;;10.00;8.40;;;22.40;97.40;;;;;;4976697;28;20481;-76
2023/05/13 09:52:00;;;;;;;9.40;8.17;;;22.40;97.10;;;;;;4977096;28;20441;-77
2023/05/13 09:54:34;;;;;;;8.80;8.00;;;22.40;97.00;;;;;;4976563;28;20573;-78
2023/05/13 09:57:04;;;;;;;8.70;7.90;;;22.40;96.90;;;;;;4975575;28;20469;-77
2023/05/13 09:59:33;;;;;;;8.50;7.63;;;22.40;96.90;;;;;;4976704;28;20946;-79
2023/05/13 10:02:05;;;;;;;8.10;7.40;;;22.40;96.70;;;;;;4977025;28;20513;-75
2023/05/13 10:04:34;;;;;;;9.57;8.60;;;22.50;96.80;;;;;;4976915;28;20832;-75
2023/05/13 10:07:03;;;;;;;8.90;8.10;;;22.50;96.60;;;;;;4977949;28;20444;-80
2023/05/13 10:09:35;;;;;;;8.40;6.60;;;22.60;96.60;;;;;;4978215;28;20813;-76
2023/05/13 10:12:07;;;;;;;7.53;6.83;;;22.60;96.60;;;;;;4974819;28;20445;-76
2023/05/13 10:14:37;;;;;;;8.50;7.10;;;22.70;96.30;;;;;;4976881;28;20885;-77
2023/05/13 10:17:06;;;;;;;11.20;7.30;;;22.70;96.10;;;;;;4980018;28;20448;-77
2023/05/13 10:19:34;;;;;;;9.20;6.87;;;22.70;95.80;;;;;;4977664;28;20466;-77
2023/05/13 10:22:03;;;;;;;7.53;6.83;;;22.80;95.80;;;;;;4978196;28;20460;-78
2023/05/13 10:24:32;;;;;;;7.50;6.63;;;22.80;95.70;;;;;;4977069;28;20568;-76
2023/05/13 10:27:01;;;;;;;9.73;6.40;;;22.80;95.90;;;;;;4978484;28;20446;-77
2023/05/13 10:29:31;;;;;;;8.07;6.60;;;22.90;95.70;;;;;;4975508;28;20434;-75
2023/05/13 10:32:00;;;;;;;7.50;5.73;;;23.00;95.50;;;;;;4976684;28;20961;-75
2023/05/13 10:34:30;;;;;;;9.00;5.90;;;23.00;95.40;;;;;;4976821;28;20982;-75
2023/05/13 10:37:13;;;;;;;6.13;5.53;;;23.00;95.30;;;;;;4978114;28;20441;-76
2023/05/13 10:40:12;;;;;;;11.80;6.07;;;23.10;94.80;;;;;;4978332;28;20457;-76
2023/05/13 10:42:42;;;;;;;7.80;5.80;;;23.10;94.70;;;;;;4978703;28;20421;-75
2023/05/13 10:45:17;;;;;;;8.60;6.10;;;23.20;94.70;;;;;;4977385;28;20560;-75
2023/05/13 10:47:50;;;;;;;6.80;6.10;;;23.20;94.10;;;;;;4978570;28;20418;-75
2023/05/13 10:50:25;;;;;;;7.30;5.67;;;23.20;93.90;;;;;;4978426;28;20422;-78
2023/05/13 10:52:57;;;;;;;6.90;4.97;;;23.20;93.80;;;;;;4980072;28;20437;-76
2023/05/13 10:55:26;;;;;;;8.07;6.60;;;23.20;93.70;;;;;;4978718;28;20457;-81
2023/05/13 10:58:08;;;;;;;7.63;5.30;;;23.20;93.60;;;;;;4977761;28;20453;-78
2023/05/13 11:00:39;;;;;;;9.20;5.47;;;23.30;93.60;;;;;;4977505;28;20472;-78
2023/05/13 11:03:12;;;;;;;9.47;5.90;;;23.30;93.40;;;;;;4978082;28;20449;-78
2023/05/13 11:05:43;;;;;;;6.33;5.47;;;23.40;93.50;;;;;;4980154;28;20970;-78
2023/05/13 11:08:11;;;;;;;6.67;6.00;;;23.40;93.40;;;;;;4983115;28;20443;-78
2023/05/13 11:10:41;;;;;;;9.17;6.17;;;23.40;93.20;;;;;;4978371;28;20448;-78
2023/05/13 11:13:23;;;;;;;6.97;6.00;;;23.50;93.20;;;;;;4984520;28;20473;-82
2023/05/13 11:15:54;;;;;;;6.63;5.90;;;23.50;93.00;;;;;;4982108;28;20488;-82
2023/05/13 11:18:30;;;;;;;6.80;6.10;;;23.50;92.80;;;;;;4982437;28;20967;-82
2023/05/13 11:21:04;;;;;;;9.10;6.37;;;23.50;92.50;;;;;;4982911;28;20469;-82
2023/05/13 11:23:34;;;;;;;7.53;6.00;;;23.50;92.60;;;;;;4989450;28;20476;-79
2023/05/13 11:26:15;;;;;;;8.20;6.33;;;23.50;92.60;;;;;;4990409;28;20487;-80
2023/05/13 11:28:59;;;;;;;6.90;5.97;;;23.60;92.40;;;;;;4990097;28;20446;-80
2023/05/13 11:31:43;;;;;;;6.87;5.97;;;23.60;92.20;;;;;;4981568;28;20437;-81
2023/05/13 11:34:13;;;;;;;6.30;5.70;;;23.60;92.10;;;;;;4980591;28;20508;-81
2023/05/13 11:36:44;;;;;;;6.53;5.27;;;23.40;91.90;;;;;;4980665;28;20823;-83
2023/05/13 11:39:16;;;;;;;7.23;5.40;;;23.40;91.80;;;;;;4981445;28;21014;-83
2023/05/13 11:41:46;;;;;;;7.07;5.50;;;23.40;91.70;;;;;;4983329;28;20827;-82
2023/05/13 11:44:15;;;;;;;8.07;5.80;;;23.50;91.70;;;;;;4981778;28;20787;-80
2023/05/13 11:46:55;;;;;;;6.57;5.40;;;23.50;91.70;;;;;;4986956;28;20464;-82
2023/05/13 11:49:33;;;;;;;8.73;6.00;;;23.60;91.50;;;;;;4982820;28;20941;-83
2023/05/13 11:52:02;;;;;;;6.83;5.40;;;23.70;91.50;;;;;;4981054;28;20964;-80
2023/05/13 11:54:31;;;;;;;6.70;5.93;;;23.80;91.40;;;;;;4982696;28;20512;-78
2023/05/13 11:56:59;;;;;;;7.60;5.63;;;23.90;91.20;;;;;;4986063;28;20442;-79
2023/05/13 11:59:27;;;;;;;8.33;5.77;;;23.80;90.90;;;;;;4987892;28;20548;-79
2023/05/13 12:02:07;;;;;;;8.00;5.03;;;23.80;90.90;;;;;;4987518;28;20521;-80
2023/05/13 12:04:35;;;;;;;5.53;5.03;;;23.70;90.70;;;;;;4988601;28;20468;-80
2023/05/13 12:07:04;;;;;;;5.83;5.20;;;23.60;90.60;;;;;;4985985;28;20906;-80
2023/05/13 12:09:32;;;;;;;7.10;5.40;;;23.60;90.60;;;;;;4985217;28;20457;-80
2023/05/13 12:12:00;;;;;;;12.63;5.50;;;23.60;90.60;;;;;;4987102;28;20967;-82
2023/05/13 12:14:29;;;;;;;6.20;5.27;;;23.70;90.60;;;;;;4990702;28;20465;-81
2023/05/13 12:16:57;;;;;;;7.40;4.80;;;23.80;90.20;;;;;;4990164;28;20456;-80
2023/05/13 12:19:27;;;;;;;7.50;5.67;;;23.80;89.50;;;;;;4986853;28;20473;-80
2023/05/13 12:21:55;;;;;;;6.80;5.57;;;23.80;89.20;;;;;;4985018;28;20450;-81
2023/05/13 12:24:23;;;;;;;16.33;6.40;;;23.80;89.00;;;;;;4984666;28;20470;-83
2023/05/13 12:26:53;;;;;;;6.17;5.27;;;23.90;88.70;;;;;;4984750;28;20951;-82
2023/05/13 12:29:22;;;;;;;6.57;5.30;;;23.90;88.50;;;;;;4988799;28;20465;-83
2023/05/13 12:32:04;;;;;;;9.30;4.93;;;23.90;88.20;;;;;;4984057;28;20450;-83
2023/05/13 12:34:34;;;;;;;9.03;5.47;;;23.90;87.80;;;;;;4977289;28;20469;-87
2023/05/13 12:37:12;;;;;;;8.17;4.67;;;24.00;88.00;;;;;;4982443;28;20454;-83
2023/05/13 12:39:41;;;;;;;8.50;5.33;;;24.00;87.70;;;;;;4980240;28;20477;-83
2023/05/13 12:42:17;;;;;;;6.57;5.73;;;24.00;87.70;;;;;;4987709;28;20484;-83
2023/05/13 12:44:46;;;;;;;9.23;5.40;;;24.00;87.70;;;;;;4978583;28;20481;-82
2023/05/13 12:47:18;;;;;;;6.13;4.90;;;24.00;87.80;;;;;;4979006;28;20457;-82